This is the latest recevied weather packets stored in our database for station/object KD0SBN. If no packets are shown the sender has not sent any weather packets the latest 10 day(s).
| Time | Temp. | Humidity | Pressure | Rain* | Wind** | Luminosity | Snow |
|---|---|---|---|---|---|---|---|
| 1777722774 | 3.33° C | 77% | 1021.7 hPa | 0 mm | - | - | - |
| 1777722470 | 2.22° C | 80% | 1021.8 hPa | 0 mm | - | - | - |
| 1777722167 | 2.78° C | 80% | 1021.7 hPa | 0 mm | - | - | - |
| 1777721864 | 2.78° C | 80% | 1022 hPa | 0 mm | - | - | - |
| 1777721562 | 2.78° C | 80% | 1021.8 hPa | 0 mm | - | - | - |
| 1777721260 | 2.78° C | 80% | 1021.8 hPa | 0 mm | - | - | - |
| 1777720957 | 2.78° C | 80% | 1021.8 hPa | 0 mm | - | - | - |
| 1777720654 | 2.78° C | 79% | 1022 hPa | 0 mm | - | - | - |
| 1777720352 | 2.78° C | 78% | 1021.9 hPa | 0 mm | - | - | - |
| 1777720049 | 2.78° C | 79% | 1021.7 hPa | 0 mm | - | - | - |
| 1777719746 | 3.33° C | 75% | 1021.4 hPa | 0 mm | - | - | - |
| 1777719444 | 3.33° C | 77% | 1021.7 hPa | 0 mm | - | - | - |
| 1777719140 | 3.89° C | 76% | 1021.8 hPa | 0 mm | - | - | - |
| 1777718838 | 3.33° C | 80% | 1021.5 hPa | 0 mm | - | - | - |
| 1777718536 | 3.33° C | 81% | 1021.7 hPa | 0 mm | - | - | - |
| 1777718233 | 3.33° C | 82% | 1021.8 hPa | 0 mm | - | - | - |
| 1777717931 | 3.89° C | 81% | 1021.8 hPa | 0 mm | - | - | - |
| 1777717627 | 3.33° C | 82% | 1021.7 hPa | 0 mm | - | - | - |
| 1777717324 | 3.33° C | 84% | 1021.8 hPa | 0 mm | - | - | - |
| 1777717022 | 3.33° C | 84% | 1021.4 hPa | 0 mm | - | - | - |
| 1777716720 | 2.78° C | 85% | 1021.7 hPa | 0 mm | - | - | - |
| 1777716418 | 2.78° C | 84% | 1021.5 hPa | 0 mm | - | - | - |
| 1777716116 | 3.33° C | 84% | 1021.5 hPa | 0 mm | - | - | - |
| 1777715814 | 3.33° C | 82% | 1021.3 hPa | 0 mm | - | - | - |
| 1777715511 | 3.89° C | 83% | 1021.4 hPa | 0 mm | - | - | - |
* Rain latest hour (hover to see other rain measurements)
** Current wind speed in m/s (hover to see current wind gust speed)